createdAt,value
2022-12-17T00:00:51.564Z,0
2022-12-17T00:01:51.033Z,0
2022-12-17T00:02:51.870Z,0
2022-12-17T00:03:53.057Z,0
2022-12-17T00:04:51.241Z,0
2022-12-17T00:05:50.704Z,0
2022-12-17T00:06:50.919Z,0
2022-12-17T00:07:50.621Z,0
2022-12-17T00:08:50.606Z,0
2022-12-17T00:09:58.556Z,0
2022-12-17T00:10:50.295Z,0
2022-12-17T00:11:50.276Z,0
2022-12-17T00:12:51.014Z,0
2022-12-17T00:13:50.256Z,0
2022-12-17T00:14:50.477Z,0
2022-12-17T00:15:51.256Z,0
2022-12-17T00:16:50.799Z,0
2022-12-17T00:17:50.415Z,0
2022-12-17T00:18:50.122Z,0
2022-12-17T00:19:50.970Z,0
2022-12-17T00:20:50.358Z,0
2022-12-17T00:21:50.575Z,0
2022-12-17T00:22:50.024Z,0
2022-12-17T00:23:50.263Z,0
2022-12-17T00:24:49.978Z,0
2022-12-17T00:25:52.490Z,0
2022-12-17T00:26:50.198Z,0
2022-12-17T00:27:50.184Z,0
2022-12-17T00:28:49.902Z,0
2022-12-17T00:29:50.396Z,0
2022-12-17T00:30:50.101Z,0
2022-12-17T00:31:50.628Z,0
2022-12-17T00:32:50.053Z,0
2022-12-17T00:33:49.795Z,0
2022-12-17T00:34:50.304Z,0
2022-12-17T00:35:50.603Z,0
2022-12-17T00:36:50.355Z,0
2022-12-17T00:37:49.778Z,0
2022-12-17T00:38:49.928Z,0
2022-12-17T00:39:50.390Z,0
2022-12-17T00:40:49.881Z,0
2022-12-17T00:41:49.842Z,0
2022-12-17T00:42:49.847Z,0
2022-12-17T00:43:50.323Z,0
2022-12-17T00:44:49.285Z,0
2022-12-17T00:45:49.506Z,0
2022-12-17T00:46:50.231Z,0
2022-12-17T00:47:49.724Z,0
2022-12-17T00:48:50.223Z,0
2022-12-17T00:49:49.411Z,0
2022-12-17T00:50:49.646Z,0
2022-12-17T00:51:50.281Z,0
2022-12-17T00:52:49.889Z,0
2022-12-17T00:53:49.849Z,0
2022-12-17T00:54:49.566Z,0
2022-12-17T00:55:49.285Z,0
2022-12-17T00:56:49.768Z,0
2022-12-17T00:57:49.757Z,0
2022-12-17T00:58:49.477Z,0
2022-12-17T00:59:49.695Z,0
2022-12-17T01:00:50.215Z,0
2022-12-17T01:01:51.351Z,0
2022-12-17T01:02:50.683Z,0
2022-12-17T01:03:49.354Z,0
2022-12-17T01:04:49.347Z,0
2022-12-17T01:05:49.825Z,0
2022-12-17T01:06:49.305Z,0
2022-12-17T01:07:49.620Z,0
2022-12-17T01:08:49.777Z,0
2022-12-17T01:09:48.957Z,0
2022-12-17T01:10:49.727Z,0
2022-12-17T01:11:49.446Z,0
2022-12-17T01:12:49.150Z,0
2022-12-17T01:13:49.384Z,0
2022-12-17T01:14:49.380Z,0
2022-12-17T01:15:48.858Z,0
2022-12-17T01:16:49.505Z,0
2022-12-17T01:17:49.035Z,0
2022-12-17T01:18:49.284Z,0
2022-12-17T01:19:49.523Z,0
2022-12-17T01:20:49.237Z,0
2022-12-17T01:21:48.948Z,0
2022-12-17T01:22:48.669Z,0
2022-12-17T01:23:49.418Z,0
2022-12-17T01:24:48.919Z,0
2022-12-17T01:25:49.399Z,0
2022-12-17T01:26:48.838Z,0
2022-12-17T01:27:49.330Z,0
2022-12-17T01:28:49.323Z,0
2022-12-17T01:29:49.018Z,0
2022-12-17T01:30:48.523Z,0
2022-12-17T01:31:48.943Z,0
2022-12-17T01:32:48.945Z,0
2022-12-17T01:33:49.066Z,0
2022-12-17T01:34:48.723Z,0
2022-12-17T01:35:48.398Z,0
2022-12-17T01:36:48.868Z,0
2022-12-17T01:37:49.106Z,0
2022-12-17T01:38:48.313Z,0
2022-12-17T01:39:49.322Z,0
2022-12-17T01:40:48.576Z,0
2022-12-17T01:41:48.742Z,0
2022-12-17T01:42:48.466Z,0
2022-12-17T01:43:48.708Z,0
2022-12-17T01:44:48.683Z,0
2022-12-17T01:45:49.071Z,0
2022-12-17T01:46:48.460Z,0
2022-12-17T01:47:48.883Z,0
2022-12-17T01:48:48.605Z,0
2022-12-17T01:49:48.555Z,0
2022-12-17T01:50:48.537Z,0
2022-12-17T01:51:48.783Z,0
2022-12-17T01:52:48.761Z,0
2022-12-17T01:53:49.140Z,0
2022-12-17T01:54:48.692Z,0
2022-12-17T01:55:49.059Z,0
2022-12-17T01:56:48.721Z,0
2022-12-17T01:57:48.387Z,0
2022-12-17T01:58:48.767Z,0
2022-12-17T01:59:48.865Z,0
2022-12-17T02:00:48.300Z,0
2022-12-17T02:01:49.872Z,0
2022-12-17T02:02:49.332Z,0
2022-12-17T02:03:48.874Z,0
2022-12-17T02:04:48.029Z,0
2022-12-17T02:05:48.454Z,0
2022-12-17T02:06:48.677Z,0
2022-12-17T02:07:48.706Z,0
2022-12-17T02:08:48.170Z,0
2022-12-17T02:09:48.367Z,0
2022-12-17T02:10:48.341Z,0
2022-12-17T02:11:48.487Z,0
2022-12-17T02:12:48.329Z,0
2022-12-17T02:13:48.779Z,0
2022-12-17T02:14:48.518Z,0
2022-12-17T02:15:47.983Z,0
2022-12-17T02:16:48.569Z,0
2022-12-17T02:17:47.925Z,0
2022-12-17T02:18:47.637Z,0
2022-12-17T02:19:47.881Z,0
2022-12-17T02:20:47.607Z,0
2022-12-17T02:21:48.339Z,0
2022-12-17T02:22:48.066Z,0
2022-12-17T02:23:48.368Z,0
2022-12-17T02:24:47.777Z,0
2022-12-17T02:25:47.984Z,0
2022-12-17T02:26:47.967Z,0
2022-12-17T02:27:48.042Z,0
2022-12-17T02:28:48.214Z,0
2022-12-17T02:29:47.910Z,0
2022-12-17T02:30:47.615Z,0
2022-12-17T02:31:48.115Z,0
2022-12-17T02:32:47.583Z,0
2022-12-17T02:33:47.761Z,0
2022-12-17T02:34:47.533Z,0
2022-12-17T02:35:47.772Z,0
2022-12-17T02:36:47.764Z,0
2022-12-17T02:37:47.222Z,0
2022-12-17T02:38:47.452Z,0
2022-12-17T02:39:47.938Z,0
2022-12-17T02:40:47.181Z,0
2022-12-17T02:41:47.932Z,0
2022-12-17T02:42:46.845Z,0
2022-12-17T02:43:48.254Z,0
2022-12-17T02:44:47.596Z,0
2022-12-17T02:45:47.622Z,0
2022-12-17T02:46:47.543Z,0
2022-12-17T02:47:47.491Z,0
2022-12-17T02:48:47.733Z,0
2022-12-17T02:49:47.713Z,0
2022-12-17T02:50:47.431Z,0
2022-12-17T02:51:47.148Z,0
2022-12-17T02:52:47.130Z,0
2022-12-17T02:53:47.239Z,0
2022-12-17T02:54:47.341Z,0
2022-12-17T02:55:47.561Z,0
2022-12-17T02:56:47.041Z,0
2022-12-17T02:57:58.898Z,0
2022-12-17T02:58:47.298Z,0
2022-12-17T02:59:47.589Z,0
2022-12-17T03:00:47.203Z,0
2022-12-17T03:01:48.214Z,0
2022-12-17T03:02:48.291Z,0
2022-12-17T03:03:55.051Z,0
2022-12-17T03:04:48.002Z,0
2022-12-17T03:05:55.421Z,0
2022-12-17T03:06:47.714Z,0
2022-12-17T03:07:47.690Z,0
2022-12-17T03:08:47.145Z,0
2022-12-17T03:09:47.647Z,0
2022-12-17T03:10:47.619Z,0
2022-12-17T03:11:47.584Z,0
2022-12-17T03:12:47.325Z,0
2022-12-17T03:13:48.566Z,0
2022-12-17T03:14:47.268Z,0
2022-12-17T03:15:48.018Z,0
2022-12-17T03:16:47.928Z,0
2022-12-17T03:17:46.952Z,0
2022-12-17T03:18:47.443Z,0
2022-12-17T03:19:46.895Z,0
2022-12-17T03:20:47.396Z,0
2022-12-17T03:21:47.367Z,0
2022-12-17T03:22:47.334Z,0
2022-12-17T03:23:47.674Z,0
2022-12-17T03:24:47.288Z,0
2022-12-17T03:25:47.300Z,0
2022-12-17T03:26:47.008Z,0
2022-12-17T03:27:46.734Z,0
2022-12-17T03:28:46.952Z,0
2022-12-17T03:29:47.185Z,0
2022-12-17T03:30:56.003Z,0
2022-12-17T03:31:47.112Z,0
2022-12-17T03:32:46.630Z,0
2022-12-17T03:50:16.606Z,0
2022-12-17T03:51:16.213Z,0
2022-12-17T03:52:16.425Z,0
2022-12-17T03:53:15.904Z,0
2022-12-17T03:54:15.894Z,0
2022-12-17T03:55:15.842Z,0
2022-12-17T03:56:15.570Z,0
2022-12-17T03:57:23.407Z,0
2022-12-17T03:58:16.009Z,0
2022-12-17T03:59:15.989Z,0
2022-12-17T04:00:15.975Z,0
2022-12-17T04:01:16.567Z,0
2022-12-17T04:02:17.027Z,0
2022-12-17T04:03:15.929Z,0
2022-12-17T04:04:15.620Z,0
2022-12-17T04:05:23.007Z,0
2022-12-17T04:06:15.903Z,0
2022-12-17T04:07:15.968Z,0
2022-12-17T04:08:16.045Z,0
2022-12-17T04:09:15.507Z,0
2022-12-17T04:10:15.756Z,0
2022-12-17T04:11:15.205Z,0
2022-12-17T04:12:15.766Z,0
2022-12-17T04:13:15.424Z,0
2022-12-17T04:14:15.388Z,0
2022-12-17T04:15:15.630Z,0
2022-12-17T04:16:16.101Z,0
2022-12-17T04:17:15.097Z,0
2022-12-17T04:18:15.558Z,0
2022-12-17T04:19:15.687Z,0
2022-12-17T04:20:15.269Z,0
2022-12-17T04:21:15.553Z,0
2022-12-17T04:22:15.809Z,0
2022-12-17T04:23:15.197Z,0
2022-12-17T04:24:15.435Z,0
2022-12-17T04:25:15.658Z,0
2022-12-17T04:26:15.383Z,0
2022-12-17T04:27:15.111Z,0
2022-12-17T04:28:14.824Z,0
2022-12-17T04:29:15.320Z,0
2022-12-17T04:30:14.770Z,0
2022-12-17T04:31:15.702Z,0
2022-12-17T04:32:14.999Z,0
2022-12-17T04:33:15.472Z,0
2022-12-17T04:34:15.484Z,0
2022-12-17T04:35:15.709Z,0
2022-12-17T04:36:15.450Z,0
2022-12-17T04:37:15.746Z,0
2022-12-17T04:38:16.462Z,0
2022-12-17T04:39:15.424Z,0
2022-12-17T04:40:15.874Z,0
2022-12-17T04:41:15.848Z,0
2022-12-17T04:42:15.819Z,0
2022-12-17T04:43:15.795Z,0
2022-12-17T04:44:15.516Z,0
2022-12-17T04:45:15.771Z,0
2022-12-17T04:46:15.935Z,0
2022-12-17T04:47:15.468Z,0
2022-12-17T04:48:15.685Z,0
2022-12-17T04:49:15.919Z,0
2022-12-17T04:50:15.388Z,0
2022-12-17T04:51:15.361Z,0
2022-12-17T04:52:15.600Z,0
2022-12-17T04:53:15.703Z,0
2022-12-17T04:54:15.628Z,0
2022-12-17T04:55:15.533Z,0
2022-12-17T04:56:15.247Z,0
2022-12-17T04:57:15.486Z,0
2022-12-17T04:58:15.766Z,0
2022-12-17T04:59:15.697Z,0
2022-12-17T05:00:15.672Z,0
2022-12-17T05:01:15.375Z,0
2022-12-17T05:02:15.948Z,0
2022-12-17T05:03:15.689Z,0
2022-12-17T05:04:15.591Z,0
2022-12-17T05:05:15.610Z,0
2022-12-17T05:06:15.283Z,0
2022-12-17T05:07:15.248Z,0
2022-12-17T05:08:14.982Z,0
2022-12-17T05:09:15.542Z,0
2022-12-17T05:10:15.526Z,0
2022-12-17T05:11:14.993Z,0
2022-12-17T05:12:14.987Z,0
2022-12-17T05:13:15.219Z,0
2022-12-17T05:14:15.192Z,0
2022-12-17T05:15:15.168Z,0
2022-12-17T05:16:15.514Z,0
2022-12-17T05:17:15.133Z,0
2022-12-17T05:18:15.106Z,0
2022-12-17T05:19:14.816Z,0
2022-12-17T05:20:14.561Z,0
2022-12-17T05:21:15.056Z,0
2022-12-17T05:22:15.013Z,0
2022-12-17T05:23:15.240Z,0
2022-12-17T05:24:14.461Z,0
2022-12-17T05:25:15.674Z,0
2022-12-17T05:26:15.927Z,0
2022-12-17T05:27:15.573Z,0
2022-12-17T05:28:15.535Z,0
2022-12-17T05:29:22.492Z,0
2022-12-17T05:30:16.026Z,0
2022-12-17T05:31:16.121Z,0
2022-12-17T05:32:15.452Z,0
2022-12-17T05:33:15.421Z,0
2022-12-17T05:34:15.177Z,0
2022-12-17T05:35:15.633Z,0
2022-12-17T05:36:15.616Z,0
2022-12-17T05:37:15.353Z,0
2022-12-17T05:38:15.568Z,0
2022-12-17T05:39:15.302Z,0
2022-12-17T05:40:21.496Z,0
2022-12-17T05:41:15.240Z,0
2022-12-17T05:42:15.577Z,0
2022-12-17T05:43:15.208Z,0
2022-12-17T05:44:15.191Z,0
2022-12-17T05:45:15.423Z,0
2022-12-17T05:46:15.228Z,0
2022-12-17T05:47:15.638Z,0
2022-12-17T05:48:15.343Z,0
2022-12-17T05:49:14.822Z,0
2022-12-17T05:50:15.311Z,0
2022-12-17T05:51:15.061Z,0
2022-12-17T05:52:15.258Z,0
2022-12-17T05:53:15.232Z,0
2022-12-17T05:54:14.952Z,0
2022-12-17T05:55:14.949Z,0
2022-12-17T05:56:15.479Z,0
2022-12-17T05:57:15.248Z,0
2022-12-17T05:58:15.452Z,0
2022-12-17T05:59:14.858Z,0
2022-12-17T06:00:14.567Z,0
2022-12-17T06:01:14.967Z,0
2022-12-17T06:02:14.558Z,0
2022-12-17T06:03:15.723Z,0
2022-12-17T06:04:15.493Z,0
2022-12-17T06:05:15.215Z,0
2022-12-17T06:06:14.956Z,0
2022-12-17T06:07:14.419Z,0
2022-12-17T06:08:14.642Z,0
2022-12-17T06:09:14.886Z,0
2022-12-17T06:10:15.137Z,0
2022-12-17T06:11:15.107Z,0
2022-12-17T06:12:14.608Z,0
2022-12-17T06:13:14.531Z,0
2022-12-17T06:14:14.937Z,0
2022-12-17T06:15:14.492Z,0
2022-12-17T06:16:15.125Z,0
2022-12-17T06:17:14.451Z,0
2022-12-17T06:18:21.747Z,0
2022-12-17T06:19:14.965Z,0
2022-12-17T06:20:14.438Z,0
2022-12-17T06:21:14.361Z,0
2022-12-17T06:22:14.858Z,0
2022-12-17T06:23:14.326Z,0
2022-12-17T06:24:14.309Z,0
2022-12-17T06:25:14.276Z,0
2022-12-17T06:26:14.528Z,0
2022-12-17T06:27:14.235Z,0
2022-12-17T06:28:14.511Z,0
2022-12-17T06:29:14.470Z,0
2022-12-17T06:30:21.049Z,0
2022-12-17T06:31:15.123Z,0
2022-12-17T06:32:14.397Z,0
2022-12-17T06:33:14.343Z,0
2022-12-17T06:34:14.073Z,0
2022-12-17T06:35:14.309Z,0
2022-12-17T06:36:22.708Z,0
2022-12-17T06:37:14.285Z,0
2022-12-17T06:38:14.241Z,0
2022-12-17T06:39:14.351Z,0
2022-12-17T06:40:14.216Z,0
2022-12-17T06:41:14.168Z,0
2022-12-17T06:42:15.143Z,0
2022-12-17T06:43:13.875Z,0
2022-12-17T06:44:14.167Z,0
2022-12-17T06:45:14.521Z,0
2022-12-17T06:46:14.460Z,0
2022-12-17T06:47:14.229Z,0
2022-12-17T06:48:14.811Z,0
2022-12-17T06:49:14.288Z,0
2022-12-17T06:50:13.975Z,0
2022-12-17T06:51:13.718Z,0
2022-12-17T06:52:13.670Z,0
2022-12-17T06:53:14.160Z,0
2022-12-17T06:54:14.240Z,0
2022-12-17T06:55:13.611Z,0
2022-12-17T06:56:13.632Z,0
2022-12-17T06:57:13.806Z,0
2022-12-17T06:58:13.797Z,0
2022-12-17T06:59:13.528Z,0
2022-12-17T07:00:13.806Z,0
2022-12-17T07:01:13.676Z,0
2022-12-17T07:02:15.086Z,0
2022-12-17T07:03:21.564Z,0
2022-12-17T07:04:13.689Z,0
2022-12-17T07:05:14.480Z,0
2022-12-17T07:06:13.367Z,0
2022-12-17T07:07:13.357Z,0
2022-12-17T07:08:15.076Z,0
2022-12-17T07:09:13.307Z,0
2022-12-17T07:10:21.405Z,0
2022-12-17T07:11:14.543Z,0
2022-12-17T07:12:13.881Z,5
2022-12-17T07:13:13.480Z,5
2022-12-17T07:14:13.443Z,5
2022-12-17T07:15:13.175Z,5
2022-12-17T07:16:13.602Z,5
2022-12-17T07:17:13.117Z,5
2022-12-17T07:18:13.704Z,5
2022-12-17T07:19:13.093Z,5
2022-12-17T07:20:12.792Z,5
2022-12-17T07:21:13.292Z,5
2022-12-17T07:22:13.020Z,5
2022-12-17T07:23:13.019Z,5
2022-12-17T07:24:13.221Z,5
2022-12-17T07:25:13.207Z,10
2022-12-17T07:26:12.683Z,10
2022-12-17T07:27:12.665Z,10
2022-12-17T07:28:13.399Z,10
2022-12-17T07:29:13.109Z,10
2022-12-17T07:30:13.352Z,10
2022-12-17T07:31:13.151Z,10
2022-12-17T07:32:13.681Z,10
2022-12-17T07:33:13.010Z,15
2022-12-17T07:34:13.356Z,15
2022-12-17T07:35:12.802Z,15
2022-12-17T07:36:12.462Z,15
2022-12-17T07:37:16.105Z,15
2022-12-17T07:38:12.669Z,15
2022-12-17T07:39:12.905Z,15
2022-12-17T07:40:12.874Z,15
2022-12-17T07:41:12.599Z,15
2022-12-17T07:42:12.583Z,20
2022-12-17T07:43:12.567Z,20
2022-12-17T07:44:12.883Z,20
2022-12-17T07:45:12.265Z,20
2022-12-17T07:46:12.710Z,20
2022-12-17T07:47:12.731Z,20
2022-12-17T07:48:12.493Z,20
2022-12-17T07:49:12.475Z,20
2022-12-17T07:50:13.182Z,25
2022-12-17T07:51:12.383Z,25
2022-12-17T07:52:12.606Z,25
2022-12-17T07:53:12.841Z,25
2022-12-17T07:54:13.025Z,25
2022-12-17T07:55:18.302Z,25
2022-12-17T07:56:12.274Z,25
2022-12-17T07:57:12.255Z,30
2022-12-17T07:58:12.744Z,30
2022-12-17T07:59:12.469Z,30
2022-12-17T08:00:12.451Z,30
2022-12-17T08:01:12.785Z,30
2022-12-17T08:02:13.650Z,35
2022-12-17T08:03:13.264Z,35
2022-12-17T08:04:12.850Z,35
2022-12-17T08:05:12.326Z,40
2022-12-17T08:06:12.633Z,40
2022-12-17T08:07:21.191Z,45
2022-12-17T08:08:12.527Z,45
2022-12-17T08:09:12.337Z,45
2022-12-17T08:10:11.957Z,45
2022-12-17T08:11:11.693Z,50
2022-12-17T08:12:12.463Z,50
2022-12-17T08:13:19.019Z,55
2022-12-17T08:14:12.136Z,55
2022-12-17T08:15:12.118Z,60
2022-12-17T08:16:12.473Z,60
2022-12-17T08:17:12.613Z,60
2022-12-17T08:18:12.643Z,60
2022-12-17T08:19:11.829Z,65
2022-12-17T08:20:12.271Z,65
2022-12-17T08:21:11.981Z,65
2022-12-17T08:22:12.349Z,70
2022-12-17T08:23:11.712Z,70
2022-12-17T08:24:11.666Z,70
2022-12-17T08:25:11.649Z,70
2022-12-17T08:26:11.363Z,70
2022-12-17T08:27:11.862Z,65
2022-12-17T08:28:56.175Z,60
2022-12-17T08:29:11.669Z,60
2022-12-17T08:30:11.788Z,60
2022-12-17T08:31:11.980Z,60
2022-12-17T08:32:11.495Z,60
2022-12-17T08:33:11.714Z,60
2022-12-17T08:34:17.438Z,65
2022-12-17T08:35:11.443Z,65
2022-12-17T08:36:11.461Z,65
2022-12-17T08:37:11.113Z,65
2022-12-17T08:38:11.743Z,70
2022-12-17T08:39:11.595Z,75
2022-12-17T08:40:11.621Z,75
2022-12-17T08:41:11.798Z,75
2022-12-17T08:42:13.930Z,75
2022-12-17T08:43:11.501Z,75
2022-12-17T08:44:11.746Z,80
2022-12-17T08:45:11.230Z,80
2022-12-17T08:46:11.518Z,75
2022-12-17T08:47:11.178Z,80
2022-12-17T08:48:13.622Z,80
2022-12-17T08:49:11.379Z,80
2022-12-17T08:50:11.141Z,85
2022-12-17T08:51:10.854Z,90
2022-12-17T08:52:11.394Z,85
2022-12-17T08:53:11.057Z,90
2022-12-17T08:54:11.356Z,90
2022-12-17T08:55:11.006Z,90
2022-12-17T08:56:11.244Z,95
2022-12-17T08:57:11.233Z,105
2022-12-17T08:58:10.936Z,115
2022-12-17T08:59:11.179Z,120
2022-12-17T09:00:11.197Z,120
2022-12-17T09:01:11.649Z,125
2022-12-17T09:02:13.160Z,140
2022-12-17T09:03:11.823Z,140
2022-12-17T09:04:10.817Z,125
2022-12-17T09:05:11.044Z,120
2022-12-17T09:06:11.038Z,115
2022-12-17T09:07:11.038Z,115
2022-12-17T09:08:10.785Z,115
2022-12-17T09:09:10.721Z,120
2022-12-17T09:10:11.275Z,115
2022-12-17T09:11:11.179Z,115
2022-12-17T09:12:10.897Z,105
2022-12-17T09:13:14.278Z,105
2022-12-17T09:14:10.868Z,115
2022-12-17T09:15:10.828Z,120
2022-12-17T09:16:10.347Z,120
2022-12-17T09:17:10.645Z,125
2022-12-17T09:18:10.527Z,130
2022-12-17T09:19:10.548Z,165
2022-12-17T09:20:10.985Z,170
2022-12-17T09:21:10.462Z,175
2022-12-17T09:22:10.682Z,220
2022-12-17T09:23:10.671Z,210
2022-12-17T09:24:10.459Z,190
2022-12-17T09:25:10.644Z,150
2022-12-17T09:26:10.922Z,125
2022-12-17T09:27:10.327Z,135
2022-12-17T09:28:10.564Z,150
2022-12-17T09:29:10.427Z,160
2022-12-17T09:30:10.785Z,185
2022-12-17T09:31:10.751Z,155
2022-12-17T09:32:10.484Z,145
2022-12-17T09:33:09.946Z,150
2022-12-17T09:34:10.176Z,130
2022-12-17T09:35:09.889Z,155
2022-12-17T09:36:10.640Z,165
2022-12-17T09:37:09.862Z,170
2022-12-17T09:38:10.375Z,170
2022-12-17T09:39:10.142Z,170
2022-12-17T09:40:10.378Z,160
2022-12-17T09:41:10.442Z,170
2022-12-17T09:42:10.694Z,140
2022-12-17T09:43:09.993Z,125
2022-12-17T09:44:10.473Z,120
2022-12-17T09:45:09.974Z,140
2022-12-17T09:46:10.595Z,140
2022-12-17T09:47:10.189Z,150
2022-12-17T09:48:09.630Z,235
2022-12-17T09:49:10.588Z,195
2022-12-17T09:50:09.868Z,110
2022-12-17T09:51:10.097Z,90
2022-12-17T09:52:10.066Z,105
2022-12-17T09:53:10.068Z,140
2022-12-17T09:54:09.782Z,165
2022-12-17T09:55:11.146Z,155
2022-12-17T09:56:09.525Z,140
2022-12-17T09:57:09.692Z,140
2022-12-17T09:58:10.293Z,140
2022-12-17T09:59:10.177Z,140
2022-12-17T10:00:09.656Z,130
2022-12-17T10:01:10.846Z,145
2022-12-17T10:02:10.530Z,165
2022-12-17T10:03:10.458Z,170
2022-12-17T10:04:09.373Z,160
2022-12-17T10:05:09.549Z,140
2022-12-17T10:06:09.534Z,140
2022-12-17T10:07:10.024Z,140
2022-12-17T10:08:09.736Z,140
2022-12-17T10:09:09.700Z,150
2022-12-17T10:10:09.707Z,145
2022-12-17T10:11:09.428Z,140
2022-12-17T10:12:09.775Z,150
2022-12-17T10:13:09.118Z,150
2022-12-17T10:14:09.969Z,140
2022-12-17T10:15:09.328Z,115
2022-12-17T10:16:10.384Z,110
2022-12-17T10:17:16.587Z,110
2022-12-17T10:18:09.523Z,115
2022-12-17T10:19:09.508Z,110
2022-12-17T10:20:09.270Z,110
2022-12-17T10:21:09.204Z,125
2022-12-17T10:22:09.202Z,140
2022-12-17T10:23:09.171Z,140
2022-12-17T10:24:12.921Z,130
2022-12-17T10:25:09.642Z,125
2022-12-17T10:26:09.632Z,120
2022-12-17T10:27:08.837Z,120
2022-12-17T10:28:09.474Z,125
2022-12-17T10:29:09.571Z,135
2022-12-17T10:30:09.672Z,130
2022-12-17T10:31:09.959Z,120
2022-12-17T10:32:09.243Z,125
2022-12-17T10:33:09.462Z,115
2022-12-17T10:34:09.914Z,105
2022-12-17T10:35:14.296Z,105
2022-12-17T10:36:09.876Z,105
2022-12-17T10:37:10.129Z,100
2022-12-17T10:38:10.112Z,100
2022-12-17T10:39:10.239Z,100
2022-12-17T10:40:10.057Z,105
2022-12-17T10:41:10.030Z,110
2022-12-17T10:42:09.826Z,105
2022-12-17T10:43:09.982Z,105
2022-12-17T10:44:09.776Z,100
2022-12-17T10:45:09.952Z,100
2022-12-17T10:46:10.310Z,95
2022-12-17T10:47:09.326Z,95
2022-12-17T10:48:10.053Z,95
2022-12-17T10:49:16.589Z,95
2022-12-17T10:50:10.011Z,95
2022-12-17T10:51:09.739Z,95
2022-12-17T10:52:09.709Z,95
2022-12-17T10:53:09.963Z,95
2022-12-17T10:54:09.677Z,95
2022-12-17T10:55:09.903Z,95
2022-12-17T10:56:09.630Z,100
2022-12-17T10:57:09.872Z,100
2022-12-17T10:58:10.128Z,100
2022-12-17T10:59:09.315Z,100
2022-12-17T11:00:09.589Z,100
2022-12-17T11:01:09.375Z,100
2022-12-17T11:02:10.986Z,95
2022-12-17T11:03:10.806Z,95
2022-12-17T11:04:09.821Z,100
2022-12-17T11:05:09.457Z,100
2022-12-17T11:06:09.179Z,100
2022-12-17T11:07:09.664Z,100
2022-12-17T11:08:09.384Z,100
2022-12-17T11:09:09.639Z,100
2022-12-17T11:10:16.987Z,100
2022-12-17T11:11:09.317Z,100
2022-12-17T11:12:17.712Z,100
2022-12-17T11:13:09.541Z,95
2022-12-17T11:14:09.763Z,95
2022-12-17T11:15:09.508Z,95
2022-12-17T11:16:10.243Z,95
2022-12-17T11:17:09.203Z,95
2022-12-17T11:18:16.902Z,90
2022-12-17T11:19:09.364Z,90
2022-12-17T11:20:09.136Z,90
2022-12-17T11:21:08.893Z,90
2022-12-17T11:22:09.095Z,90
2022-12-17T11:23:09.316Z,90
2022-12-17T11:24:09.337Z,90
2022-12-17T11:25:09.017Z,90
2022-12-17T11:26:09.275Z,90
2022-12-17T11:27:08.985Z,90
2022-12-17T11:28:08.710Z,90
2022-12-17T11:29:08.733Z,90
2022-12-17T11:30:08.924Z,90
2022-12-17T11:31:08.971Z,90
2022-12-17T11:32:09.185Z,90
2022-12-17T11:33:09.371Z,90
2022-12-17T11:34:09.440Z,90
2022-12-17T11:35:08.815Z,90
2022-12-17T11:36:08.802Z,90
2022-12-17T11:37:08.511Z,90
2022-12-17T11:38:10.245Z,90
2022-12-17T11:39:10.103Z,90
2022-12-17T11:40:09.943Z,90
2022-12-17T11:41:09.668Z,90
2022-12-17T11:42:16.441Z,90
2022-12-17T11:43:09.635Z,90
2022-12-17T11:44:09.879Z,90
2022-12-17T11:45:10.082Z,90
2022-12-17T11:46:09.566Z,85
2022-12-17T11:47:09.614Z,85
2022-12-17T11:48:09.821Z,85
2022-12-17T11:49:09.927Z,85
2022-12-17T11:50:09.829Z,85
2022-12-17T11:51:09.714Z,85
2022-12-17T11:52:09.957Z,85
2022-12-17T11:53:09.677Z,90
2022-12-17T11:54:09.393Z,90
2022-12-17T11:55:09.384Z,90
2022-12-17T11:56:09.867Z,85
2022-12-17T11:57:08.812Z,85
2022-12-17T11:58:09.345Z,85
2022-12-17T11:59:09.411Z,85
2022-12-17T12:00:13.956Z,85
2022-12-17T12:01:09.251Z,85
2022-12-17T12:02:09.776Z,85
2022-12-17T12:03:10.166Z,85
2022-12-17T12:04:09.784Z,85
2022-12-17T12:05:09.436Z,85
2022-12-17T12:06:09.604Z,85
2022-12-17T12:07:09.404Z,85
2022-12-17T12:08:09.353Z,85
2022-12-17T12:09:09.761Z,80
2022-12-17T12:10:09.341Z,80
2022-12-17T12:11:09.562Z,80
2022-12-17T12:12:09.272Z,80
2022-12-17T12:13:09.025Z,80
2022-12-17T12:14:09.243Z,80
2022-12-17T12:15:09.216Z,80
2022-12-17T12:16:09.839Z,80
2022-12-17T12:17:08.914Z,80
2022-12-17T12:18:09.150Z,80
2022-12-17T12:19:09.061Z,80
2022-12-17T12:20:08.649Z,80
2022-12-17T12:21:09.080Z,80
2022-12-17T12:22:09.439Z,80
2022-12-17T12:23:08.787Z,80
2022-12-17T12:24:09.029Z,80
2022-12-17T12:25:08.486Z,80
2022-12-17T12:26:08.977Z,80
2022-12-17T12:27:08.714Z,80
2022-12-17T12:28:08.421Z,80
2022-12-17T12:29:08.549Z,80
2022-12-17T12:30:08.117Z,80
2022-12-17T12:31:08.297Z,80
2022-12-17T12:32:08.991Z,80
2022-12-17T12:33:15.461Z,80
2022-12-17T12:34:08.545Z,80
2022-12-17T12:35:09.042Z,80
2022-12-17T12:36:08.840Z,80
2022-12-17T12:37:08.491Z,80
2022-12-17T12:38:09.045Z,80
2022-12-17T12:39:08.462Z,80
2022-12-17T12:40:08.690Z,80
2022-12-17T12:41:08.626Z,80
2022-12-17T12:42:08.379Z,80
2022-12-17T12:43:08.363Z,80
2022-12-17T12:44:08.097Z,80
2022-12-17T12:45:08.580Z,80
2022-12-17T12:46:08.881Z,80
2022-12-17T12:47:08.535Z,75
2022-12-17T12:48:08.516Z,75
2022-12-17T12:49:07.983Z,75
2022-12-17T12:50:08.219Z,75
2022-12-17T12:51:08.195Z,75
2022-12-17T12:52:08.232Z,75
2022-12-17T12:53:08.402Z,75
2022-12-17T12:54:08.445Z,75
2022-12-17T12:55:08.619Z,75
2022-12-17T12:56:07.595Z,75
2022-12-17T12:57:08.574Z,75
2022-12-17T12:58:08.296Z,75
2022-12-17T12:59:08.541Z,75
2022-12-17T13:00:08.637Z,75
2022-12-17T13:01:08.755Z,75
2022-12-17T13:02:09.389Z,75
2022-12-17T13:03:08.835Z,75
2022-12-17T13:04:08.194Z,70
2022-12-17T13:05:07.923Z,70
2022-12-17T13:06:08.131Z,70
2022-12-17T13:07:08.101Z,70
2022-12-17T13:08:08.380Z,70
2022-12-17T13:09:07.818Z,70
2022-12-17T13:10:08.172Z,70
2022-12-17T13:11:08.027Z,70
2022-12-17T13:12:07.751Z,70
2022-12-17T13:13:07.475Z,70
2022-12-17T13:14:07.961Z,70
2022-12-17T13:15:07.437Z,70
2022-12-17T13:16:08.315Z,70
2022-12-17T13:17:08.161Z,70
2022-12-17T13:18:07.869Z,70
2022-12-17T13:19:08.101Z,65
2022-12-17T13:20:07.619Z,65
2022-12-17T13:21:07.314Z,65
2022-12-17T13:22:07.291Z,65
2022-12-17T13:23:07.258Z,65
2022-12-17T13:24:08.070Z,65
2022-12-17T13:25:07.474Z,65
2022-12-17T13:26:07.778Z,65
2022-12-17T13:27:07.686Z,65
2022-12-17T13:28:07.420Z,65
2022-12-17T13:29:08.343Z,65
2022-12-17T13:30:07.695Z,65
2022-12-17T13:31:07.882Z,60
2022-12-17T13:32:08.488Z,60
2022-12-17T13:33:07.294Z,60
2022-12-17T13:34:07.031Z,60
2022-12-17T13:35:14.799Z,60
2022-12-17T13:36:07.737Z,60
2022-12-17T13:37:07.214Z,60
2022-12-17T13:38:07.216Z,60
2022-12-17T13:39:07.424Z,60
2022-12-17T13:40:07.295Z,60
2022-12-17T13:41:13.914Z,60
2022-12-17T13:42:07.848Z,60
2022-12-17T13:43:07.082Z,55
2022-12-17T13:44:07.067Z,55
2022-12-17T13:45:07.325Z,55
2022-12-17T13:46:07.566Z,55
2022-12-17T13:47:06.748Z,55
2022-12-17T13:48:07.235Z,55
2022-12-17T13:49:07.234Z,55
2022-12-17T13:50:43.582Z,55
2022-12-17T13:51:06.927Z,55
2022-12-17T13:52:16.743Z,55
2022-12-17T13:53:06.874Z,55
2022-12-17T13:54:06.470Z,50
2022-12-17T13:55:07.076Z,50
2022-12-17T13:56:06.853Z,50
2022-12-17T13:57:06.678Z,50
2022-12-17T13:58:07.110Z,50
2022-12-17T13:59:15.302Z,50
2022-12-17T14:00:07.048Z,50
2022-12-17T14:01:07.342Z,50
2022-12-17T14:02:07.450Z,50
2022-12-17T14:03:07.694Z,50
2022-12-17T14:04:16.392Z,45
2022-12-17T14:05:14.677Z,45
2022-12-17T14:06:07.473Z,45
2022-12-17T14:07:06.695Z,45
2022-12-17T14:08:07.191Z,45
2022-12-17T14:09:07.418Z,45
2022-12-17T14:10:07.127Z,45
2022-12-17T14:11:13.757Z,45
2022-12-17T14:12:06.841Z,45
2022-12-17T14:13:06.823Z,45
2022-12-17T14:14:07.377Z,40
2022-12-17T14:15:06.790Z,40
2022-12-17T14:16:07.049Z,40
2022-12-17T14:17:07.510Z,40
2022-12-17T14:18:06.722Z,40
2022-12-17T14:19:06.693Z,40
2022-12-17T14:20:07.038Z,40
2022-12-17T14:21:06.918Z,35
2022-12-17T14:22:06.634Z,35
2022-12-17T14:23:06.599Z,35
2022-12-17T14:24:06.580Z,35
2022-12-17T14:25:06.863Z,35
2022-12-17T14:26:06.552Z,35
2022-12-17T14:27:06.564Z,35
2022-12-17T14:28:06.753Z,30
2022-12-17T14:29:05.955Z,30
2022-12-17T14:30:07.156Z,30
2022-12-17T14:31:36.341Z,30
2022-12-17T14:32:06.823Z,30
2022-12-17T14:33:05.867Z,30
2022-12-17T14:34:06.490Z,30
2022-12-17T14:35:10.162Z,30
2022-12-17T14:36:06.605Z,30
2022-12-17T14:37:06.200Z,30
2022-12-17T14:38:06.412Z,30
2022-12-17T14:39:07.107Z,30
2022-12-17T14:40:06.968Z,25
2022-12-17T14:41:05.941Z,25
2022-12-17T14:42:06.215Z,25
2022-12-17T14:43:06.451Z,25